sensor_id;sensor_type;location;lat;lon;timestamp;pressure;altitude;pressure_sealevel;temperature;humidity
60246;BME280;46107;53.356;-1.524;2023-04-24T00:01:48;97934.33;;;3.74;65.91
60246;BME280;46107;53.356;-1.524;2023-04-24T00:04:16;97932.10;;;4.90;62.47
60246;BME280;46107;53.356;-1.524;2023-04-24T00:06:43;97940.76;;;3.33;67.72
60246;BME280;46107;53.356;-1.524;2023-04-24T00:09:10;97947.11;;;4.17;64.76
60246;BME280;46107;53.356;-1.524;2023-04-24T00:11:38;97951.46;;;3.56;64.91
60246;BME280;46107;53.356;-1.524;2023-04-24T00:14:06;97954.29;;;3.13;66.05
60246;BME280;46107;53.356;-1.524;2023-04-24T00:16:33;97953.55;;;3.17;66.35
60246;BME280;46107;53.356;-1.524;2023-04-24T00:19:01;97950.09;;;3.81;64.09
60246;BME280;46107;53.356;-1.524;2023-04-24T00:21:28;97961.18;;;3.06;65.89
60246;BME280;46107;53.356;-1.524;2023-04-24T00:23:58;97958.63;;;3.78;63.60
60246;BME280;46107;53.356;-1.524;2023-04-24T00:26:25;97957.56;;;4.03;64.58
60246;BME280;46107;53.356;-1.524;2023-04-24T00:28:52;97956.83;;;4.16;62.24
60246;BME280;46107;53.356;-1.524;2023-04-24T00:31:19;97952.16;;;3.64;64.60
60246;BME280;46107;53.356;-1.524;2023-04-24T00:33:47;97954.78;;;3.29;64.87
60246;BME280;46107;53.356;-1.524;2023-04-24T00:36:14;97952.53;;;4.86;60.18
60246;BME280;46107;53.356;-1.524;2023-04-24T00:38:42;97959.73;;;3.63;62.94
60246;BME280;46107;53.356;-1.524;2023-04-24T00:41:09;97955.31;;;3.91;62.25
60246;BME280;46107;53.356;-1.524;2023-04-24T00:43:37;97960.03;;;3.13;65.87
60246;BME280;46107;53.356;-1.524;2023-04-24T00:46:04;97960.88;;;3.64;63.46
60246;BME280;46107;53.356;-1.524;2023-04-24T00:48:32;97963.07;;;3.40;62.77
60246;BME280;46107;53.356;-1.524;2023-04-24T00:51:00;97967.77;;;3.30;64.36
60246;BME280;46107;53.356;-1.524;2023-04-24T00:53:27;97971.59;;;3.08;62.77
60246;BME280;46107;53.356;-1.524;2023-04-24T00:55:56;97972.28;;;3.01;65.22
60246;BME280;46107;53.356;-1.524;2023-04-24T00:58:25;97968.84;;;2.65;64.81
60246;BME280;46107;53.356;-1.524;2023-04-24T01:00:54;97969.07;;;3.39;62.09
60246;BME280;46107;53.356;-1.524;2023-04-24T01:03:26;97968.98;;;3.55;62.25
60246;BME280;46107;53.356;-1.524;2023-04-24T01:05:57;97968.14;;;3.90;60.91
60246;BME280;46107;53.356;-1.524;2023-04-24T01:08:24;97971.74;;;2.56;66.46
60246;BME280;46107;53.356;-1.524;2023-04-24T01:10:54;97976.73;;;3.10;62.09
60246;BME280;46107;53.356;-1.524;2023-04-24T01:13:22;97975.69;;;2.97;61.37
60246;BME280;46107;53.356;-1.524;2023-04-24T01:15:50;97977.65;;;3.34;62.62
60246;BME280;46107;53.356;-1.524;2023-04-24T01:18:17;97983.08;;;4.36;59.77
60246;BME280;46107;53.356;-1.524;2023-04-24T01:20:45;97984.17;;;3.84;60.13
60246;BME280;46107;53.356;-1.524;2023-04-24T01:23:13;97988.20;;;3.99;58.34
60246;BME280;46107;53.356;-1.524;2023-04-24T01:25:41;97993.70;;;4.70;59.87
60246;BME280;46107;53.356;-1.524;2023-04-24T01:28:08;97992.23;;;4.03;59.03
60246;BME280;46107;53.356;-1.524;2023-04-24T01:30:37;97992.74;;;3.42;59.38
60246;BME280;46107;53.356;-1.524;2023-04-24T01:33:04;97987.54;;;3.62;60.40
60246;BME280;46107;53.356;-1.524;2023-04-24T01:35:32;97990.81;;;3.43;60.86
60246;BME280;46107;53.356;-1.524;2023-04-24T01:38:00;97997.06;;;3.06;63.17
60246;BME280;46107;53.356;-1.524;2023-04-24T01:40:27;98003.01;;;3.10;62.24
60246;BME280;46107;53.356;-1.524;2023-04-24T01:42:56;98004.06;;;2.90;62.76
60246;BME280;46107;53.356;-1.524;2023-04-24T01:45:24;98006.64;;;3.95;60.35
60246;BME280;46107;53.356;-1.524;2023-04-24T01:47:52;98003.35;;;2.83;62.91
60246;BME280;46107;53.356;-1.524;2023-04-24T01:50:19;98003.08;;;2.87;62.99
60246;BME280;46107;53.356;-1.524;2023-04-24T01:52:47;98001.61;;;3.06;62.67
60246;BME280;46107;53.356;-1.524;2023-04-24T01:55:14;98004.94;;;2.94;62.85
60246;BME280;46107;53.356;-1.524;2023-04-24T01:57:42;98010.47;;;2.61;64.90
60246;BME280;46107;53.356;-1.524;2023-04-24T02:00:10;98006.36;;;2.37;65.31
60246;BME280;46107;53.356;-1.524;2023-04-24T02:02:38;98007.76;;;2.43;65.59
60246;BME280;46107;53.356;-1.524;2023-04-24T02:05:08;98010.72;;;1.83;66.40
60246;BME280;46107;53.356;-1.524;2023-04-24T02:07:36;98012.37;;;1.82;67.24
60246;BME280;46107;53.356;-1.524;2023-04-24T02:10:05;98011.07;;;1.85;66.54
60246;BME280;46107;53.356;-1.524;2023-04-24T02:12:33;98011.75;;;2.31;65.97
60246;BME280;46107;53.356;-1.524;2023-04-24T02:15:01;98010.41;;;2.00;67.74
60246;BME280;46107;53.356;-1.524;2023-04-24T02:17:29;98007.56;;;1.23;70.37
60246;BME280;46107;53.356;-1.524;2023-04-24T02:20:01;98009.66;;;1.61;67.81
60246;BME280;46107;53.356;-1.524;2023-04-24T02:22:29;98010.71;;;1.80;68.40
60246;BME280;46107;53.356;-1.524;2023-04-24T02:25:02;98003.36;;;2.38;65.60
60246;BME280;46107;53.356;-1.524;2023-04-24T02:27:30;98004.88;;;1.79;67.22
60246;BME280;46107;53.356;-1.524;2023-04-24T02:29:57;98005.65;;;2.16;65.88
60246;BME280;46107;53.356;-1.524;2023-04-24T02:32:25;98008.39;;;2.59;64.90
60246;BME280;46107;53.356;-1.524;2023-04-24T02:34:52;98011.49;;;2.54;66.84
60246;BME280;46107;53.356;-1.524;2023-04-24T02:37:20;98013.58;;;2.29;65.04
60246;BME280;46107;53.356;-1.524;2023-04-24T02:39:47;98014.94;;;2.38;64.44
60246;BME280;46107;53.356;-1.524;2023-04-24T02:42:15;98011.79;;;2.10;64.31
60246;BME280;46107;53.356;-1.524;2023-04-24T02:44:42;98011.68;;;2.67;63.40
60246;BME280;46107;53.356;-1.524;2023-04-24T02:47:10;98021.03;;;2.91;63.41
60246;BME280;46107;53.356;-1.524;2023-04-24T02:49:38;98032.36;;;2.21;64.01
60246;BME280;46107;53.356;-1.524;2023-04-24T02:52:05;98037.67;;;2.18;63.89
60246;BME280;46107;53.356;-1.524;2023-04-24T02:54:33;98039.04;;;1.72;64.70
60246;BME280;46107;53.356;-1.524;2023-04-24T02:57:00;98040.81;;;2.77;62.58
60246;BME280;46107;53.356;-1.524;2023-04-24T02:59:28;98037.41;;;2.14;63.01
60246;BME280;46107;53.356;-1.524;2023-04-24T03:01:55;98038.85;;;2.14;63.96
60246;BME280;46107;53.356;-1.524;2023-04-24T03:04:24;98046.39;;;2.51;64.09
60246;BME280;46107;53.356;-1.524;2023-04-24T03:06:51;98056.85;;;2.25;63.52
60246;BME280;46107;53.356;-1.524;2023-04-24T03:09:19;98059.47;;;2.71;63.44
60246;BME280;46107;53.356;-1.524;2023-04-24T03:11:46;98058.21;;;2.19;63.24
60246;BME280;46107;53.356;-1.524;2023-04-24T03:14:14;98052.28;;;4.10;58.38
60246;BME280;46107;53.356;-1.524;2023-04-24T03:16:41;98062.33;;;2.61;61.49
60246;BME280;46107;53.356;-1.524;2023-04-24T03:19:08;98050.77;;;3.14;60.77
60246;BME280;46107;53.356;-1.524;2023-04-24T03:21:36;98057.40;;;3.59;59.91
60246;BME280;46107;53.356;-1.524;2023-04-24T03:24:04;98060.67;;;4.05;58.85
60246;BME280;46107;53.356;-1.524;2023-04-24T03:26:32;98062.63;;;3.92;58.70
60246;BME280;46107;53.356;-1.524;2023-04-24T03:28:59;98066.74;;;3.92;57.46
60246;BME280;46107;53.356;-1.524;2023-04-24T03:31:27;98065.63;;;3.93;57.14
60246;BME280;46107;53.356;-1.524;2023-04-24T03:33:55;98068.77;;;3.53;57.96
60246;BME280;46107;53.356;-1.524;2023-04-24T03:36:24;98072.69;;;3.79;57.03
60246;BME280;46107;53.356;-1.524;2023-04-24T03:38:52;98071.81;;;4.67;57.67
60246;BME280;46107;53.356;-1.524;2023-04-24T03:41:20;98072.62;;;4.29;55.63
60246;BME280;46107;53.356;-1.524;2023-04-24T03:43:47;98070.42;;;4.27;56.08
60246;BME280;46107;53.356;-1.524;2023-04-24T03:46:15;98071.39;;;3.34;58.54
60246;BME280;46107;53.356;-1.524;2023-04-24T03:48:43;98075.52;;;3.51;58.74
60246;BME280;46107;53.356;-1.524;2023-04-24T03:51:10;98077.47;;;4.45;57.01
60246;BME280;46107;53.356;-1.524;2023-04-24T03:53:38;98074.50;;;4.24;56.08
60246;BME280;46107;53.356;-1.524;2023-04-24T03:56:05;98071.20;;;4.05;56.61
60246;BME280;46107;53.356;-1.524;2023-04-24T03:58:33;98068.48;;;3.29;57.59
60246;BME280;46107;53.356;-1.524;2023-04-24T04:01:00;98066.04;;;2.88;58.90
60246;BME280;46107;53.356;-1.524;2023-04-24T04:03:28;98069.81;;;3.26;57.33
60246;BME280;46107;53.356;-1.524;2023-04-24T04:06:01;98078.35;;;3.87;57.07
60246;BME280;46107;53.356;-1.524;2023-04-24T04:08:28;98082.84;;;3.21;56.82
60246;BME280;46107;53.356;-1.524;2023-04-24T04:10:58;98089.17;;;3.15;58.65
60246;BME280;46107;53.356;-1.524;2023-04-24T04:13:26;98089.75;;;3.50;56.73
60246;BME280;46107;53.356;-1.524;2023-04-24T04:15:53;98090.98;;;3.34;57.91
60246;BME280;46107;53.356;-1.524;2023-04-24T04:18:21;98092.63;;;3.88;57.26
60246;BME280;46107;53.356;-1.524;2023-04-24T04:20:48;98090.28;;;3.10;58.08
60246;BME280;46107;53.356;-1.524;2023-04-24T04:23:16;98099.63;;;2.82;59.51
60246;BME280;46107;53.356;-1.524;2023-04-24T04:25:43;98093.53;;;3.42;58.06
60246;BME280;46107;53.356;-1.524;2023-04-24T04:28:11;98103.80;;;3.84;55.85
60246;BME280;46107;53.356;-1.524;2023-04-24T04:30:39;98109.77;;;3.47;57.95
60246;BME280;46107;53.356;-1.524;2023-04-24T04:33:07;98112.92;;;4.22;57.47
60246;BME280;46107;53.356;-1.524;2023-04-24T04:35:35;98115.60;;;3.39;57.47
60246;BME280;46107;53.356;-1.524;2023-04-24T04:38:02;98120.85;;;2.48;60.73
60246;BME280;46107;53.356;-1.524;2023-04-24T04:40:29;98122.59;;;2.61;59.45
60246;BME280;46107;53.356;-1.524;2023-04-24T04:43:01;98115.16;;;3.16;56.94
60246;BME280;46107;53.356;-1.524;2023-04-24T04:45:29;98112.18;;;3.56;55.58
60246;BME280;46107;53.356;-1.524;2023-04-24T04:47:57;98119.62;;;2.84;57.87
60246;BME280;46107;53.356;-1.524;2023-04-24T04:50:24;98118.12;;;3.56;57.29
60246;BME280;46107;53.356;-1.524;2023-04-24T04:52:52;98128.85;;;3.19;59.06
60246;BME280;46107;53.356;-1.524;2023-04-24T04:55:19;98127.56;;;3.45;57.73
60246;BME280;46107;53.356;-1.524;2023-04-24T04:57:47;98133.57;;;2.78;59.48
60246;BME280;46107;53.356;-1.524;2023-04-24T05:00:15;98136.60;;;3.33;58.21
60246;BME280;46107;53.356;-1.524;2023-04-24T05:02:42;98133.74;;;3.93;57.64
60246;BME280;46107;53.356;-1.524;2023-04-24T05:05:10;98138.17;;;3.30;57.56
60246;BME280;46107;53.356;-1.524;2023-04-24T05:07:37;98142.74;;;4.22;56.91
60246;BME280;46107;53.356;-1.524;2023-04-24T05:10:07;98152.65;;;2.88;60.59
60246;BME280;46107;53.356;-1.524;2023-04-24T05:12:34;98152.63;;;3.90;56.72
60246;BME280;46107;53.356;-1.524;2023-04-24T05:15:01;98163.46;;;3.33;59.28
60246;BME280;46107;53.356;-1.524;2023-04-24T05:17:29;98159.59;;;3.10;59.19
60246;BME280;46107;53.356;-1.524;2023-04-24T05:19:58;98155.78;;;3.93;57.54
60246;BME280;46107;53.356;-1.524;2023-04-24T05:22:25;98160.51;;;2.83;59.19
60246;BME280;46107;53.356;-1.524;2023-04-24T05:24:53;98161.04;;;3.46;59.06
60246;BME280;46107;53.356;-1.524;2023-04-24T05:27:21;98160.41;;;3.08;60.85
60246;BME280;46107;53.356;-1.524;2023-04-24T05:29:47;98166.25;;;2.85;60.60
60246;BME280;46107;53.356;-1.524;2023-04-24T05:32:16;98165.01;;;3.70;57.16
60246;BME280;46107;53.356;-1.524;2023-04-24T05:34:43;98171.54;;;3.56;58.82
60246;BME280;46107;53.356;-1.524;2023-04-24T05:37:11;98173.74;;;3.54;59.54
60246;BME280;46107;53.356;-1.524;2023-04-24T05:39:38;98179.32;;;2.31;61.60
60246;BME280;46107;53.356;-1.524;2023-04-24T05:42:06;98181.25;;;2.67;62.77
60246;BME280;46107;53.356;-1.524;2023-04-24T05:44:33;98185.42;;;3.08;61.68
60246;BME280;46107;53.356;-1.524;2023-04-24T05:47:01;98188.01;;;3.78;59.02
60246;BME280;46107;53.356;-1.524;2023-04-24T05:49:28;98188.63;;;3.26;60.72
60246;BME280;46107;53.356;-1.524;2023-04-24T05:52:00;98187.95;;;3.42;59.31
60246;BME280;46107;53.356;-1.524;2023-04-24T05:54:27;98192.07;;;3.02;62.09
60246;BME280;46107;53.356;-1.524;2023-04-24T05:56:57;98193.68;;;3.40;60.87
60246;BME280;46107;53.356;-1.524;2023-04-24T05:59:24;98191.29;;;3.92;59.24
60246;BME280;46107;53.356;-1.524;2023-04-24T06:01:52;98191.68;;;4.10;58.56
60246;BME280;46107;53.356;-1.524;2023-04-24T06:04:19;98187.48;;;4.34;58.54
60246;BME280;46107;53.356;-1.524;2023-04-24T06:06:47;98184.91;;;4.50;57.34
60246;BME280;46107;53.356;-1.524;2023-04-24T06:09:15;98191.52;;;4.29;58.31
60246;BME280;46107;53.356;-1.524;2023-04-24T06:11:42;98193.10;;;4.63;55.27
60246;BME280;46107;53.356;-1.524;2023-04-24T06:14:10;98204.19;;;3.77;57.90
60246;BME280;46107;53.356;-1.524;2023-04-24T06:16:37;98196.02;;;4.85;56.13
60246;BME280;46107;53.356;-1.524;2023-04-24T06:19:05;98199.26;;;4.67;57.13
60246;BME280;46107;53.356;-1.524;2023-04-24T06:21:32;98201.34;;;4.27;57.07
60246;BME280;46107;53.356;-1.524;2023-04-24T06:23:59;98214.02;;;3.40;59.21
60246;BME280;46107;53.356;-1.524;2023-04-24T06:26:26;98207.02;;;4.82;56.63
60246;BME280;46107;53.356;-1.524;2023-04-24T06:28:53;98206.32;;;4.43;57.76
60246;BME280;46107;53.356;-1.524;2023-04-24T06:31:21;98218.29;;;3.78;59.53
60246;BME280;46107;53.356;-1.524;2023-04-24T06:33:49;98210.23;;;4.11;57.05
60246;BME280;46107;53.356;-1.524;2023-04-24T06:36:17;98206.88;;;4.03;58.17
60246;BME280;46107;53.356;-1.524;2023-04-24T06:38:44;98213.02;;;3.37;59.36
60246;BME280;46107;53.356;-1.524;2023-04-24T06:41:12;98207.33;;;3.47;59.20
60246;BME280;46107;53.356;-1.524;2023-04-24T06:43:40;98211.73;;;3.54;59.93
60246;BME280;46107;53.356;-1.524;2023-04-24T06:46:07;98220.32;;;3.52;60.15
60246;BME280;46107;53.356;-1.524;2023-04-24T06:48:35;98221.13;;;4.54;58.79
60246;BME280;46107;53.356;-1.524;2023-04-24T06:51:03;98228.87;;;3.56;60.68
60246;BME280;46107;53.356;-1.524;2023-04-24T06:53:31;98225.13;;;5.21;56.72
60246;BME280;46107;53.356;-1.524;2023-04-24T06:55:58;98228.03;;;4.31;58.14
60246;BME280;46107;53.356;-1.524;2023-04-24T06:58:26;98224.41;;;4.97;56.63
60246;BME280;46107;53.356;-1.524;2023-04-24T07:00:54;98230.35;;;5.15;56.85
60246;BME280;46107;53.356;-1.524;2023-04-24T07:03:21;98228.29;;;5.87;54.43
60246;BME280;46107;53.356;-1.524;2023-04-24T07:05:49;98229.51;;;5.32;56.43
60246;BME280;46107;53.356;-1.524;2023-04-24T07:08:17;98234.77;;;4.40;55.88
60246;BME280;46107;53.356;-1.524;2023-04-24T07:10:45;98234.15;;;3.95;56.74
60246;BME280;46107;53.356;-1.524;2023-04-24T07:13:12;98231.81;;;4.61;54.38
60246;BME280;46107;53.356;-1.524;2023-04-24T07:15:40;98230.13;;;4.11;56.13
60246;BME280;46107;53.356;-1.524;2023-04-24T07:18:08;98235.43;;;4.23;58.31
60246;BME280;46107;53.356;-1.524;2023-04-24T07:20:35;98247.76;;;3.37;59.45
60246;BME280;46107;53.356;-1.524;2023-04-24T07:23:03;98242.84;;;2.80;63.21
60246;BME280;46107;53.356;-1.524;2023-04-24T07:25:30;98247.56;;;4.38;59.56
60246;BME280;46107;53.356;-1.524;2023-04-24T07:27:58;98253.71;;;3.78;60.95
60246;BME280;46107;53.356;-1.524;2023-04-24T07:30:25;98249.22;;;4.40;56.68
60246;BME280;46107;53.356;-1.524;2023-04-24T07:32:52;98254.93;;;3.40;61.60
60246;BME280;46107;53.356;-1.524;2023-04-24T07:35:20;98250.38;;;4.67;58.18
60246;BME280;46107;53.356;-1.524;2023-04-24T07:37:47;98250.87;;;4.67;54.64
60246;BME280;46107;53.356;-1.524;2023-04-24T07:40:16;98252.25;;;5.26;54.46
60246;BME280;46107;53.356;-1.524;2023-04-24T07:42:43;98253.99;;;4.70;55.64
60246;BME280;46107;53.356;-1.524;2023-04-24T07:45:10;98255.02;;;4.42;55.28
60246;BME280;46107;53.356;-1.524;2023-04-24T07:47:38;98262.89;;;4.13;55.64
60246;BME280;46107;53.356;-1.524;2023-04-24T07:50:06;98262.03;;;4.13;57.57
60246;BME280;46107;53.356;-1.524;2023-04-24T07:52:33;98251.90;;;4.81;54.16
60246;BME280;46107;53.356;-1.524;2023-04-24T07:55:01;98253.33;;;4.99;56.06
60246;BME280;46107;53.356;-1.524;2023-04-24T07:57:29;98249.75;;;5.26;55.84
60246;BME280;46107;53.356;-1.524;2023-04-24T07:59:57;98251.18;;;5.55;54.23
60246;BME280;46107;53.356;-1.524;2023-04-24T08:02:25;98249.99;;;6.15;51.58
60246;BME280;46107;53.356;-1.524;2023-04-24T08:04:57;98252.92;;;6.63;50.84
60246;BME280;46107;53.356;-1.524;2023-04-24T08:07:30;98257.72;;;5.85;51.91
60246;BME280;46107;53.356;-1.524;2023-04-24T08:09:58;98255.16;;;6.36;49.43
60246;BME280;46107;53.356;-1.524;2023-04-24T08:12:25;98258.85;;;4.97;51.73
60246;BME280;46107;53.356;-1.524;2023-04-24T08:15:02;98263.02;;;5.52;51.96
60246;BME280;46107;53.356;-1.524;2023-04-24T08:17:30;98263.33;;;5.18;52.03
60246;BME280;46107;53.356;-1.524;2023-04-24T08:19:58;98263.97;;;5.55;52.80
60246;BME280;46107;53.356;-1.524;2023-04-24T08:22:26;98269.98;;;5.45;55.14
60246;BME280;46107;53.356;-1.524;2023-04-24T08:25:11;98270.68;;;5.37;51.50
60246;BME280;46107;53.356;-1.524;2023-04-24T08:27:50;98271.70;;;5.51;53.86
60246;BME280;46107;53.356;-1.524;2023-04-24T08:30:35;98275.67;;;6.31;54.02
60246;BME280;46107;53.356;-1.524;2023-04-24T08:33:02;98279.56;;;6.19;50.87
60246;BME280;46107;53.356;-1.524;2023-04-24T08:35:29;98274.56;;;5.86;50.80
60246;BME280;46107;53.356;-1.524;2023-04-24T08:38:02;98283.62;;;5.89;50.66
60246;BME280;46107;53.356;-1.524;2023-04-24T08:40:32;98282.70;;;6.06;49.51
60246;BME280;46107;53.356;-1.524;2023-04-24T08:43:01;98283.04;;;6.02;50.18
60246;BME280;46107;53.356;-1.524;2023-04-24T08:45:29;98284.93;;;5.62;51.62
60246;BME280;46107;53.356;-1.524;2023-04-24T08:47:58;98283.16;;;5.98;47.82
60246;BME280;46107;53.356;-1.524;2023-04-24T08:50:25;98290.72;;;5.34;51.38
60246;BME280;46107;53.356;-1.524;2023-04-24T08:52:53;98290.33;;;5.54;49.74
60246;BME280;46107;53.356;-1.524;2023-04-24T08:55:21;98287.12;;;5.24;50.14
60246;BME280;46107;53.356;-1.524;2023-04-24T08:57:51;98289.77;;;5.94;49.51
60246;BME280;46107;53.356;-1.524;2023-04-24T09:00:21;98292.68;;;6.76;49.59
60246;BME280;46107;53.356;-1.524;2023-04-24T09:02:50;98288.21;;;6.08;52.67
60246;BME280;46107;53.356;-1.524;2023-04-24T09:05:18;98289.20;;;5.87;49.72
60246;BME280;46107;53.356;-1.524;2023-04-24T09:07:53;98292.77;;;6.30;50.09
60246;BME280;46107;53.356;-1.524;2023-04-24T09:10:23;98291.63;;;5.94;48.52
60246;BME280;46107;53.356;-1.524;2023-04-24T09:12:50;98286.86;;;5.84;49.10
60246;BME280;46107;53.356;-1.524;2023-04-24T09:15:19;98289.86;;;6.28;47.59
60246;BME280;46107;53.356;-1.524;2023-04-24T09:17:47;98299.03;;;5.35;52.93
60246;BME280;46107;53.356;-1.524;2023-04-24T09:20:14;98300.35;;;5.40;51.49
60246;BME280;46107;53.356;-1.524;2023-04-24T09:22:42;98298.36;;;5.69;51.09
60246;BME280;46107;53.356;-1.524;2023-04-24T09:25:10;98302.01;;;5.83;52.87
60246;BME280;46107;53.356;-1.524;2023-04-24T09:27:42;98300.27;;;6.93;48.71
60246;BME280;46107;53.356;-1.524;2023-04-24T09:30:11;98302.58;;;6.41;46.48
60246;BME280;46107;53.356;-1.524;2023-04-24T09:32:39;98311.34;;;6.55;47.28
60246;BME280;46107;53.356;-1.524;2023-04-24T09:35:10;98310.36;;;6.93;47.84
60246;BME280;46107;53.356;-1.524;2023-04-24T09:37:39;98314.93;;;6.39;48.30
60246;BME280;46107;53.356;-1.524;2023-04-24T09:40:09;98315.29;;;6.02;49.67
60246;BME280;46107;53.356;-1.524;2023-04-24T09:42:37;98318.30;;;5.81;49.34
60246;BME280;46107;53.356;-1.524;2023-04-24T09:45:09;98320.68;;;5.39;49.01
60246;BME280;46107;53.356;-1.524;2023-04-24T09:47:37;98318.55;;;5.82;49.42
60246;BME280;46107;53.356;-1.524;2023-04-24T09:50:20;98323.78;;;6.48;47.17
60246;BME280;46107;53.356;-1.524;2023-04-24T09:52:57;98324.56;;;5.93;48.34
60246;BME280;46107;53.356;-1.524;2023-04-24T09:55:26;98327.56;;;6.74;46.90
60246;BME280;46107;53.356;-1.524;2023-04-24T09:57:55;98326.31;;;6.65;46.98
60246;BME280;46107;53.356;-1.524;2023-04-24T10:00:30;98327.66;;;6.59;50.69
60246;BME280;46107;53.356;-1.524;2023-04-24T10:02:59;98325.81;;;5.99;47.43
60246;BME280;46107;53.356;-1.524;2023-04-24T10:05:29;98330.42;;;6.32;48.41
60246;BME280;46107;53.356;-1.524;2023-04-24T10:08:00;98325.75;;;7.52;45.05
60246;BME280;46107;53.356;-1.524;2023-04-24T10:10:28;98329.34;;;7.03;48.79
60246;BME280;46107;53.356;-1.524;2023-04-24T10:13:21;98327.49;;;7.49;46.12
60246;BME280;46107;53.356;-1.524;2023-04-24T10:15:57;98332.68;;;6.59;46.17
60246;BME280;46107;53.356;-1.524;2023-04-24T10:18:39;98334.92;;;8.09;45.59
60246;BME280;46107;53.356;-1.524;2023-04-24T10:21:19;98336.95;;;7.50;45.33
60246;BME280;46107;53.356;-1.524;2023-04-24T10:24:08;98343.45;;;6.95;45.88
60246;BME280;46107;53.356;-1.524;2023-04-24T10:27:13;98336.86;;;7.18;44.88
60246;BME280;46107;53.356;-1.524;2023-04-24T10:29:41;98342.40;;;6.57;45.63
60246;BME280;46107;53.356;-1.524;2023-04-24T10:32:10;98345.45;;;6.73;47.47
60246;BME280;46107;53.356;-1.524;2023-04-24T10:34:37;98340.42;;;7.54;46.09
60246;BME280;46107;53.356;-1.524;2023-04-24T10:37:05;98340.69;;;7.26;45.33
60246;BME280;46107;53.356;-1.524;2023-04-24T10:39:33;98337.13;;;7.41;46.90
60246;BME280;46107;53.356;-1.524;2023-04-24T10:42:01;98342.23;;;8.46;42.22
60246;BME280;46107;53.356;-1.524;2023-04-24T10:44:36;98342.88;;;8.39;43.80
60246;BME280;46107;53.356;-1.524;2023-04-24T10:50:24;98341.76;;;8.03;42.09
60246;BME280;46107;53.356;-1.524;2023-04-24T10:52:52;98342.20;;;8.22;41.22
60246;BME280;46107;53.356;-1.524;2023-04-24T10:55:41;98343.22;;;8.63;39.36
60246;BME280;46107;53.356;-1.524;2023-04-24T10:58:09;98349.23;;;8.32;44.68
60246;BME280;46107;53.356;-1.524;2023-04-24T11:00:38;98348.00;;;7.97;42.50
60246;BME280;46107;53.356;-1.524;2023-04-24T11:03:12;98345.20;;;7.24;46.24
60246;BME280;46107;53.356;-1.524;2023-04-24T11:05:52;98347.41;;;9.21;40.95
60246;BME280;46107;53.356;-1.524;2023-04-24T11:08:24;98349.80;;;8.67;40.15
60246;BME280;46107;53.356;-1.524;2023-04-24T11:10:59;98350.13;;;8.24;39.60
60246;BME280;46107;53.356;-1.524;2023-04-24T11:14:01;98347.34;;;7.05;43.06
60246;BME280;46107;53.356;-1.524;2023-04-24T11:16:30;98355.00;;;8.27;41.43
60246;BME280;46107;53.356;-1.524;2023-04-24T11:19:02;98354.79;;;8.08;40.33
60246;BME280;46107;53.356;-1.524;2023-04-24T11:21:32;98352.80;;;8.54;39.61
60246;BME280;46107;53.356;-1.524;2023-04-24T11:24:23;98353.98;;;7.00;42.57
60246;BME280;46107;53.356;-1.524;2023-04-24T11:26:52;98352.25;;;7.02;43.33
60246;BME280;46107;53.356;-1.524;2023-04-24T11:29:20;98359.89;;;6.44;45.46
60246;BME280;46107;53.356;-1.524;2023-04-24T11:31:49;98363.90;;;8.42;40.71
60246;BME280;46107;53.356;-1.524;2023-04-24T11:34:16;98364.63;;;8.03;41.50
60246;BME280;46107;53.356;-1.524;2023-04-24T11:36:45;98365.20;;;6.96;44.30
60246;BME280;46107;53.356;-1.524;2023-04-24T11:39:13;98362.69;;;7.60;41.67
60246;BME280;46107;53.356;-1.524;2023-04-24T11:41:41;98367.37;;;7.98;42.56
60246;BME280;46107;53.356;-1.524;2023-04-24T11:44:09;98371.12;;;6.81;43.66
60246;BME280;46107;53.356;-1.524;2023-04-24T11:46:37;98372.86;;;7.04;45.69
60246;BME280;46107;53.356;-1.524;2023-04-24T11:49:04;98378.05;;;6.87;44.93
60246;BME280;46107;53.356;-1.524;2023-04-24T11:51:32;98383.54;;;6.40;45.52
60246;BME280;46107;53.356;-1.524;2023-04-24T11:54:00;98391.19;;;6.31;46.89
60246;BME280;46107;53.356;-1.524;2023-04-24T11:56:33;98397.54;;;5.28;48.00
60246;BME280;46107;53.356;-1.524;2023-04-24T11:59:04;98400.29;;;6.24;45.55
60246;BME280;46107;53.356;-1.524;2023-04-24T12:01:43;98402.47;;;6.04;45.25
60246;BME280;46107;53.356;-1.524;2023-04-24T12:04:12;98409.11;;;6.35;45.62
60246;BME280;46107;53.356;-1.524;2023-04-24T12:06:39;98407.74;;;5.86;46.82
60246;BME280;46107;53.356;-1.524;2023-04-24T12:09:07;98410.82;;;5.83;45.46
60246;BME280;46107;53.356;-1.524;2023-04-24T12:11:36;98413.01;;;7.12;44.59
60246;BME280;46107;53.356;-1.524;2023-04-24T12:14:19;98417.89;;;5.93;44.41
60246;BME280;46107;53.356;-1.524;2023-04-24T12:16:48;98423.32;;;6.62;45.75
60246;BME280;46107;53.356;-1.524;2023-04-24T12:19:20;98422.53;;;5.66;45.39
60246;BME280;46107;53.356;-1.524;2023-04-24T12:21:59;98425.24;;;7.05;44.96
60246;BME280;46107;53.356;-1.524;2023-04-24T12:24:27;98426.36;;;7.04;45.65
60246;BME280;46107;53.356;-1.524;2023-04-24T12:26:55;98426.19;;;7.24;43.05
60246;BME280;46107;53.356;-1.524;2023-04-24T12:29:22;98422.27;;;7.52;41.87
60246;BME280;46107;53.356;-1.524;2023-04-24T12:31:51;98425.12;;;7.67;39.67
60246;BME280;46107;53.356;-1.524;2023-04-24T12:34:19;98428.09;;;6.94;39.37
60246;BME280;46107;53.356;-1.524;2023-04-24T12:36:47;98429.78;;;7.04;39.26
60246;BME280;46107;53.356;-1.524;2023-04-24T12:39:15;98430.07;;;7.51;39.40
60246;BME280;46107;53.356;-1.524;2023-04-24T12:41:54;98433.13;;;8.18;39.04
60246;BME280;46107;53.356;-1.524;2023-04-24T12:44:29;98433.23;;;8.34;38.58
60246;BME280;46107;53.356;-1.524;2023-04-24T12:46:58;98432.81;;;7.62;40.97
60246;BME280;46107;53.356;-1.524;2023-04-24T12:49:26;98434.31;;;7.95;43.05
60246;BME280;46107;53.356;-1.524;2023-04-24T12:51:54;98435.97;;;7.67;41.58
60246;BME280;46107;53.356;-1.524;2023-04-24T12:54:22;98436.77;;;8.00;38.68
60246;BME280;46107;53.356;-1.524;2023-04-24T12:56:49;98440.14;;;9.15;38.44
60246;BME280;46107;53.356;-1.524;2023-04-24T12:59:17;98439.39;;;7.69;37.71
60246;BME280;46107;53.356;-1.524;2023-04-24T13:01:44;98439.01;;;8.22;39.15
60246;BME280;46107;53.356;-1.524;2023-04-24T13:04:12;98438.35;;;8.29;43.01
60246;BME280;46107;53.356;-1.524;2023-04-24T13:06:40;98436.79;;;7.96;39.42
60246;BME280;46107;53.356;-1.524;2023-04-24T13:09:07;98436.84;;;7.41;41.28
60246;BME280;46107;53.356;-1.524;2023-04-24T13:11:35;98433.66;;;8.56;37.75
60246;BME280;46107;53.356;-1.524;2023-04-24T13:14:02;98436.59;;;7.64;41.43